Terminal Aerodrome Forecast
Issued by NWS

Home | Current Version | Previous Version | Graphics & Text | Print | Product List | Glossary On
Versions: 1 2 3 4 5 6 7 8 9 10 11 12 13 14 15 16 17 18
437
FTUS43 KICT 072157 AAB
TAFCNU
TAF AMD
KCNU 072157Z 0722/0818 36013KT 1 1/2SM -SN BKN008 OVC025
      TEMPO 0722/0724 4SM -SN SCT015 OVC035
     FM080000 35013KT 5SM -SN SCT015 OVC035
     FM080300 33009KT P6SM SCT035=

USA.gov is the U.S. government's official web portal to all federal, state and local government web resources and services.